Terminal Aerodrome Forecast
Issued by NWS Charleston, WV

Current Version | Previous Version | Graphics & Text | Print | Product List | Glossary On
Versions: 1 2 3 4 5 6 7 8 9 10 11 12 13 14 15 16 17 18 19 20 21 22 23 24 25 26 27
087
FTUS41 KRLX 180917 AAA
TAFBKW
TAF AMD
KBKW 180917Z 1809/1906 29007KT 6SM BR OVC007
     FM181200 28007KT P6SM SCT010
     FM181400 27007KT P6SM SCT250
     FM181800 26010G17KT P6SM SKC
     FM182200 26007KT P6SM SKC=

USA.gov is the U.S. government's official web portal to all federal, state and local government web resources and services.